createdAt,value
2018-12-08T00:01:00.979Z,6.40
2018-12-08T00:03:34.962Z,6.40
2018-12-08T00:06:06.709Z,6.40
2018-12-08T00:08:38.907Z,6.40
2018-12-08T00:11:10.992Z,6.40
2018-12-08T00:13:43.243Z,6.40
2018-12-08T00:16:15.377Z,6.40
2018-12-08T00:18:47.979Z,6.50
2018-12-08T00:21:20.299Z,6.50
2018-12-08T00:23:52.565Z,6.50
2018-12-08T00:26:24.327Z,6.40
2018-12-08T00:28:56.452Z,6.40
2018-12-08T00:31:40.048Z,6.30
2018-12-08T00:34:11.644Z,6.30
2018-12-08T00:36:44.064Z,6.20
2018-12-08T00:39:18.475Z,6.20
2018-12-08T00:41:50.066Z,6.20
2018-12-08T00:44:22.200Z,6.10
2018-12-08T00:46:54.744Z,6.10
2018-12-08T00:49:29.446Z,6.10
2018-12-08T00:52:01.320Z,6.10
2018-12-08T00:54:35.479Z,6.10
2018-12-08T00:57:10.205Z,6.20
2018-12-08T00:59:42.068Z,6.20
2018-12-08T01:02:14.268Z,6.20
2018-12-08T01:04:45.810Z,6.20
2018-12-08T01:07:18.049Z,6.20
2018-12-08T01:09:50.428Z,6.20
2018-12-08T01:12:22.610Z,6.20
2018-12-08T01:14:54.876Z,6.20
2018-12-08T01:17:26.886Z,6.20
2018-12-08T01:19:59.518Z,6.30
2018-12-08T01:22:31.152Z,6.30
2018-12-08T01:25:03.696Z,6.40
2018-12-08T01:27:38.110Z,6.40
2018-12-08T01:30:10.133Z,6.50
2018-12-08T01:32:42.047Z,6.50
2018-12-08T01:35:14.523Z,6.50
2018-12-08T01:37:46.907Z,6.60
2018-12-08T01:40:19.405Z,6.60
2018-12-08T01:42:56.555Z,6.50
2018-12-08T01:45:29.004Z,6.50
2018-12-08T01:48:01.125Z,6.50
2018-12-08T01:50:33.367Z,6.50
2018-12-08T01:53:05.431Z,6.50
2018-12-08T01:55:37.739Z,6.50
2018-12-08T01:58:10.023Z,6.50
2018-12-08T02:00:42.460Z,6.50
2018-12-08T02:03:14.914Z,6.50
2018-12-08T02:05:47.211Z,6.60
2018-12-08T02:08:18.900Z,6.60
2018-12-08T02:10:50.758Z,6.60
2018-12-08T02:13:25.474Z,6.60
2018-12-08T02:15:57.655Z,6.60
2018-12-08T02:18:32.325Z,6.60
2018-12-08T02:21:04.040Z,6.60
2018-12-08T02:23:36.385Z,6.60
2018-12-08T02:26:08.750Z,6.60
2018-12-08T02:28:40.681Z,6.60
2018-12-08T02:31:15.400Z,6.60
2018-12-08T02:33:47.350Z,6.60
2018-12-08T02:36:19.829Z,6.70
2018-12-08T02:38:51.797Z,6.70
2018-12-08T02:41:23.958Z,6.70
2018-12-08T02:43:58.700Z,6.60
2018-12-08T02:46:32.718Z,6.60
2018-12-08T02:49:04.803Z,6.60
2018-12-08T02:51:39.428Z,6.60
2018-12-08T02:54:17.651Z,6.60
2018-12-08T02:56:51.763Z,6.60
2018-12-08T02:59:23.659Z,6.60
2018-12-08T03:01:55.788Z,6.60
2018-12-08T03:04:27.757Z,6.70
2018-12-08T03:07:04.423Z,6.70
2018-12-08T03:09:36.603Z,6.70
2018-12-08T03:12:08.612Z,6.70
2018-12-08T03:14:41.127Z,6.80
2018-12-08T03:17:13.350Z,6.80
2018-12-08T03:19:45.618Z,6.80
2018-12-08T03:22:17.554Z,6.80
2018-12-08T03:24:49.508Z,6.80
2018-12-08T03:27:23.932Z,6.70
2018-12-08T03:29:56.532Z,6.70
2018-12-08T03:32:28.511Z,6.70
2018-12-08T03:35:00.899Z,6.70
2018-12-08T03:37:33.200Z,6.70
2018-12-08T03:40:05.246Z,6.70
2018-12-08T03:42:39.841Z,6.70
2018-12-08T03:45:11.618Z,6.70
2018-12-08T03:47:43.854Z,6.70
2018-12-08T03:50:18.019Z,6.80
2018-12-08T03:52:47.859Z,6.70
2018-12-08T03:55:19.925Z,6.70
2018-12-08T03:57:52.006Z,6.80
2018-12-08T04:00:22.355Z,6.80
2018-12-08T04:02:54.581Z,6.80
2018-12-08T04:05:29.083Z,6.80
2018-12-08T04:08:03.681Z,6.80
2018-12-08T04:10:35.783Z,6.80
2018-12-08T04:13:08.168Z,6.80
2018-12-08T04:15:42.747Z,6.80
2018-12-08T04:18:16.590Z,6.80
2018-12-08T04:20:50.921Z,6.80
2018-12-08T04:23:22.580Z,6.80
2018-12-08T04:25:55.001Z,6.90
2018-12-08T04:28:27.072Z,7.00
2018-12-08T04:31:01.710Z,7.10
2018-12-08T04:33:33.586Z,7.00
2018-12-08T04:36:08.332Z,7.00
2018-12-08T04:38:39.950Z,7.00
2018-12-08T04:41:11.948Z,7.00
2018-12-08T04:43:45.879Z,7.00
2018-12-08T04:46:17.635Z,7.00
2018-12-08T04:48:52.171Z,7.00
2018-12-08T04:51:23.945Z,7.00
2018-12-08T04:53:56.345Z,7.00
2018-12-08T04:56:28.580Z,7.10
2018-12-08T04:59:00.068Z,7.20
2018-12-08T05:01:32.467Z,7.20
2018-12-08T05:04:04.860Z,7.20
2018-12-08T05:06:37.083Z,7.30
2018-12-08T05:09:09.223Z,7.30
2018-12-08T05:11:40.709Z,7.20
2018-12-08T05:14:13.047Z,7.20
2018-12-08T05:16:47.251Z,7.20
2018-12-08T05:19:19.770Z,7.20
2018-12-08T05:21:51.974Z,7.30
2018-12-08T05:24:24.219Z,7.30
2018-12-08T05:26:56.441Z,7.20
2018-12-08T05:29:27.999Z,7.20
2018-12-08T05:32:00.227Z,7.20
2018-12-08T05:37:03.367Z,7.40
2018-12-08T05:47:05.043Z,7.50
2018-12-08T05:49:39.221Z,7.50
2018-12-08T05:52:11.119Z,7.50
2018-12-08T05:57:08.447Z,7.40
2018-12-08T05:59:43.461Z,7.40
2018-12-08T06:02:16.327Z,7.40
2018-12-08T06:04:46.227Z,7.30
2018-12-08T06:07:21.005Z,7.30
2018-12-08T06:09:52.949Z,7.30
2018-12-08T06:12:29.459Z,7.30
2018-12-08T06:15:01.275Z,7.30
2018-12-08T06:17:33.614Z,7.30
2018-12-08T06:20:06.055Z,7.40
2018-12-08T06:22:37.741Z,7.40
2018-12-08T06:25:20.542Z,7.40
2018-12-08T06:28:04.653Z,7.40
2018-12-08T06:30:36.345Z,7.50
2018-12-08T06:33:08.619Z,7.40
2018-12-08T06:35:41.175Z,7.50
2018-12-08T06:38:13.281Z,7.50
2018-12-08T06:40:45.687Z,7.50
2018-12-08T06:43:17.647Z,7.50
2018-12-08T06:45:49.687Z,7.40
2018-12-08T06:48:24.203Z,7.50
2018-12-08T06:50:56.266Z,7.50
2018-12-08T06:53:28.219Z,7.50
2018-12-08T06:56:00.602Z,7.60
2018-12-08T06:58:35.539Z,7.60
2018-12-08T07:01:10.003Z,7.60
2018-12-08T07:03:41.931Z,7.60
2018-12-08T07:06:15.531Z,7.60
2018-12-08T07:08:48.046Z,7.60
2018-12-08T07:11:20.007Z,7.60
2018-12-08T07:13:55.284Z,7.60
2018-12-08T07:16:27.929Z,7.70
2018-12-08T07:19:00.060Z,7.70
2018-12-08T07:21:32.982Z,7.70
2018-12-08T07:24:08.343Z,7.70
2018-12-08T07:26:42.864Z,7.70
2018-12-08T07:29:17.986Z,7.70
2018-12-08T07:31:52.488Z,7.70
2018-12-08T07:34:24.881Z,7.70
2018-12-08T07:36:57.814Z,7.80
2018-12-08T07:39:30.383Z,7.80
2018-12-08T07:42:06.943Z,7.80
2018-12-08T07:44:39.234Z,7.80
2018-12-08T07:47:13.534Z,7.80
2018-12-08T07:49:45.622Z,7.90
2018-12-08T07:52:20.514Z,7.80
2018-12-08T07:54:54.807Z,7.80
2018-12-08T07:57:27.285Z,7.80
2018-12-08T08:00:02.383Z,7.80
2018-12-08T08:02:39.255Z,7.80
2018-12-08T08:05:15.883Z,7.90
2018-12-08T08:07:48.367Z,7.90
2018-12-08T08:10:20.649Z,8.00
2018-12-08T08:12:55.083Z,8.00
2018-12-08T08:15:26.929Z,8.10
2018-12-08T08:17:59.677Z,8.10
2018-12-08T08:20:31.847Z,8.10
2018-12-08T08:23:06.401Z,8.20
2018-12-08T08:25:40.441Z,8.20
2018-12-08T08:28:14.799Z,8.30
2018-12-08T08:30:46.594Z,8.30
2018-12-08T08:33:30.480Z,8.40
2018-12-08T08:36:04.797Z,8.40
2018-12-08T08:38:36.723Z,8.40
2018-12-08T08:41:06.710Z,8.40
2018-12-08T08:43:38.763Z,8.40
2018-12-08T08:46:13.368Z,8.40
2018-12-08T08:48:45.025Z,8.40
2018-12-08T08:51:17.332Z,8.30
2018-12-08T08:53:48.955Z,8.30
2018-12-08T08:56:21.445Z,8.20
2018-12-08T08:58:53.660Z,8.10
2018-12-08T09:01:25.968Z,8.10
2018-12-08T09:03:58.544Z,8.10
2018-12-08T09:06:30.818Z,8.10
2018-12-08T09:09:05.992Z,8.10
2018-12-08T09:11:38.076Z,8.10
2018-12-08T09:14:13.328Z,8.10
2018-12-08T09:16:47.154Z,8.10
2018-12-08T09:19:19.228Z,8.10
2018-12-08T09:21:49.100Z,8.10
2018-12-08T09:24:23.888Z,7.90
2018-12-08T09:27:07.310Z,8.10
2018-12-08T09:29:42.538Z,8.10
2018-12-08T09:32:15.674Z,8.10
2018-12-08T09:34:52.467Z,8.10
2018-12-08T09:37:22.883Z,8.10
2018-12-08T09:39:57.092Z,8.20
2018-12-08T09:42:31.651Z,8.20
2018-12-08T09:45:04.473Z,8.20
2018-12-08T09:47:36.857Z,8.30
2018-12-08T09:50:23.333Z,8.30
2018-12-08T09:53:09.396Z,8.30
2018-12-08T09:55:42.104Z,8.50
2018-12-08T09:58:14.620Z,8.60
2018-12-08T10:00:46.824Z,8.70
2018-12-08T10:03:21.336Z,8.80
2018-12-08T10:08:23.120Z,9.20
2018-12-08T10:10:57.268Z,9.20
2018-12-08T10:13:29.116Z,9.30
2018-12-08T10:16:01.304Z,9.40
2018-12-08T10:18:32.850Z,9.40
2018-12-08T10:21:05.161Z,9.40
2018-12-08T10:23:37.602Z,9.40
2018-12-08T10:26:12.334Z,9.50
2018-12-08T10:28:44.234Z,9.60
2018-12-08T10:31:18.786Z,9.60
2018-12-08T10:33:53.311Z,9.60
2018-12-08T10:36:25.744Z,9.70
2018-12-08T10:38:58.614Z,9.70
2018-12-08T10:41:30.105Z,9.90
2018-12-08T10:44:02.396Z,9.90
2018-12-08T10:46:34.747Z,9.90
2018-12-08T10:49:06.762Z,9.90
2018-12-08T10:51:38.950Z,9.90
2018-12-08T10:54:11.103Z,10.00
2018-12-08T10:56:47.647Z,10.00
2018-12-08T10:59:21.790Z,10.10
2018-12-08T11:02:01.148Z,10.10
2018-12-08T11:04:35.596Z,10.10
2018-12-08T11:07:10.413Z,10.10
2018-12-08T11:09:42.520Z,10.00
2018-12-08T11:12:14.564Z,10.10
2018-12-08T11:14:46.733Z,10.10
2018-12-08T11:17:19.177Z,10.10
2018-12-08T11:19:53.103Z,10.20
2018-12-08T11:22:25.004Z,10.20
2018-12-08T11:24:57.356Z,10.20
2018-12-08T11:27:31.898Z,10.20
2018-12-08T11:30:06.522Z,10.30
2018-12-08T11:32:40.460Z,10.30
2018-12-08T11:35:16.832Z,10.30
2018-12-08T11:37:49.334Z,10.30
2018-12-08T11:40:22.260Z,10.30
2018-12-08T11:42:54.628Z,10.30
2018-12-08T11:45:27.190Z,10.40
2018-12-08T11:48:09.898Z,10.40
2018-12-08T11:50:49.372Z,10.40
2018-12-08T11:53:27.874Z,10.30
2018-12-08T11:56:03.982Z,10.30
2018-12-08T11:58:38.246Z,10.20
2018-12-08T12:01:10.627Z,10.20
2018-12-08T12:03:43.218Z,10.30
2018-12-08T12:06:18.199Z,10.40
2018-12-08T12:08:52.314Z,10.50
2018-12-08T12:11:23.851Z,10.40
2018-12-08T12:13:56.975Z,10.40
2018-12-08T12:16:32.567Z,10.40
2018-12-08T12:19:04.141Z,10.40
2018-12-08T12:21:36.669Z,10.40
2018-12-08T12:24:09.552Z,10.40
2018-12-08T12:26:42.428Z,10.40
2018-12-08T12:29:15.050Z,10.40
2018-12-08T12:31:47.512Z,10.40
2018-12-08T12:34:19.718Z,10.40
2018-12-08T12:36:52.470Z,10.40
2018-12-08T12:39:26.922Z,10.30
2018-12-08T12:41:59.756Z,10.30
2018-12-08T12:44:31.902Z,10.40
2018-12-08T12:47:04.826Z,10.40
2018-12-08T12:49:39.049Z,10.40
2018-12-08T12:52:11.285Z,10.40
2018-12-08T12:54:42.937Z,10.30
2018-12-08T12:57:15.311Z,10.40
2018-12-08T12:59:49.806Z,10.50
2018-12-08T13:02:21.817Z,10.50
2018-12-08T13:04:58.363Z,10.50
2018-12-08T13:07:32.987Z,10.50
2018-12-08T13:10:05.100Z,10.50
2018-12-08T13:12:43.166Z,10.50
2018-12-08T13:15:15.652Z,10.50
2018-12-08T13:17:50.286Z,10.50
2018-12-08T13:20:22.163Z,10.50
2018-12-08T13:22:54.279Z,10.50
2018-12-08T13:25:33.598Z,10.50
2018-12-08T13:28:08.046Z,10.50
2018-12-08T13:33:36.643Z,10.50
2018-12-08T13:36:12.119Z,10.60
2018-12-08T13:38:47.665Z,10.60
2018-12-08T13:41:20.104Z,10.50
2018-12-08T13:43:55.236Z,10.50
2018-12-08T13:46:29.960Z,10.50
2018-12-08T13:49:02.061Z,10.50
2018-12-08T13:51:41.788Z,10.50
2018-12-08T13:54:49.034Z,10.60
2018-12-08T13:57:21.553Z,10.60
2018-12-08T13:59:57.591Z,10.60
2018-12-08T14:02:30.317Z,10.50
2018-12-08T14:05:03.301Z,10.50
2018-12-08T14:07:46.351Z,10.40
2018-12-08T14:10:26.346Z,10.30
2018-12-08T14:13:01.631Z,10.40
2018-12-08T14:15:44.024Z,10.40
2018-12-08T14:18:19.048Z,10.40
2018-12-08T14:20:56.203Z,10.40
2018-12-08T14:26:20.243Z,10.40
2018-12-08T14:28:59.736Z,10.40
2018-12-08T14:31:39.992Z,10.40
2018-12-08T14:34:19.059Z,10.40
2018-12-08T14:36:54.005Z,10.40
2018-12-08T14:39:33.481Z,10.40
2018-12-08T14:42:06.119Z,10.40
2018-12-08T14:56:07.732Z,10.10
2018-12-08T14:58:48.380Z,10.00
2018-12-08T15:01:23.749Z,10.00
2018-12-08T15:04:03.143Z,10.10
2018-12-08T15:06:37.688Z,10.20
2018-12-08T15:09:11.807Z,10.20
2018-12-08T15:11:46.271Z,10.20
2018-12-08T15:14:20.877Z,10.20
2018-12-08T15:19:45.143Z,10.20
2018-12-08T15:25:27.983Z,10.30
2018-12-08T15:28:05.630Z,10.30
2018-12-08T15:30:42.325Z,10.40
2018-12-08T15:36:18.706Z,10.40
2018-12-08T15:41:52.366Z,10.30
2018-12-08T15:47:28.823Z,10.30
2018-12-08T15:50:05.343Z,10.30
2018-12-08T15:52:50.704Z,10.20
2018-12-08T15:58:20.720Z,10.10
2018-12-08T16:00:52.680Z,10.00
2018-12-08T16:03:25.432Z,10.00
2018-12-08T16:05:59.732Z,10.00
2018-12-08T16:08:31.669Z,10.00
2018-12-08T16:11:04.962Z,10.00
2018-12-08T16:13:49.793Z,10.00
2018-12-08T16:16:36.694Z,10.00
2018-12-08T16:19:21.640Z,10.00
2018-12-08T16:24:59.151Z,10.10
2018-12-08T16:27:37.696Z,10.10
2018-12-08T16:30:13.308Z,10.00
2018-12-08T16:35:33.275Z,10.10
2018-12-08T16:38:05.504Z,10.10
2018-12-08T16:40:39.978Z,10.10
2018-12-08T16:43:14.485Z,10.10
2018-12-08T16:45:49.335Z,10.10
2018-12-08T16:48:26.922Z,10.10
2018-12-08T16:51:00.944Z,10.10
2018-12-08T16:56:18.583Z,10.10
2018-12-08T16:58:52.933Z,10.10
2018-12-08T17:01:33.466Z,10.10
2018-12-08T17:04:05.925Z,10.10
2018-12-08T17:06:38.172Z,10.10
2018-12-08T17:09:10.559Z,10.10
2018-12-08T17:11:45.803Z,10.10
2018-12-08T17:14:24.907Z,10.00
2018-12-08T17:17:00.145Z,9.90
2018-12-08T17:19:32.542Z,9.80
2018-12-08T17:22:04.954Z,9.70
2018-12-08T17:24:37.161Z,9.60
2018-12-08T17:27:17.347Z,9.60
2018-12-08T17:29:53.401Z,9.60
2018-12-08T17:32:26.069Z,9.60
2018-12-08T17:35:06.781Z,9.50
2018-12-08T17:40:13.971Z,9.50
2018-12-08T17:42:48.814Z,9.50
2018-12-08T17:52:55.598Z,9.50
2018-12-08T17:55:28.625Z,9.50
2018-12-08T18:00:37.903Z,9.50
2018-12-08T18:03:13.103Z,9.50
2018-12-08T18:05:51.132Z,9.50
2018-12-08T18:13:53.500Z,9.60
2018-12-08T18:16:25.601Z,9.60
2018-12-08T18:18:59.686Z,9.60
2018-12-08T18:21:32.077Z,9.60
2018-12-08T18:24:04.621Z,9.60
2018-12-08T18:29:15.381Z,9.60
2018-12-08T18:31:51.573Z,9.60
2018-12-08T18:34:32.629Z,9.60
2018-12-08T18:37:08.288Z,9.60
2018-12-08T18:42:42.872Z,9.60
2018-12-08T18:45:14.783Z,9.70
2018-12-08T18:47:46.914Z,9.70
2018-12-08T18:50:18.900Z,9.70
2018-12-08T18:55:38.644Z,9.70
2018-12-08T19:01:15.919Z,9.70
2018-12-08T19:03:59.102Z,9.70
2018-12-08T19:06:34.008Z,9.70
2018-12-08T19:09:07.837Z,9.80
2018-12-08T19:12:00.860Z,9.80
2018-12-08T19:14:45.078Z,9.80
2018-12-08T19:17:23.375Z,9.80
2018-12-08T19:26:07.805Z,9.90
2018-12-08T19:28:51.865Z,10.00
2018-12-08T19:31:28.416Z,9.90
2018-12-08T19:34:04.291Z,9.90
2018-12-08T19:36:35.471Z,9.90
2018-12-08T19:39:09.643Z,9.80
2018-12-08T19:41:45.065Z,9.80
2018-12-08T19:44:20.161Z,9.90
2018-12-08T19:46:57.183Z,9.90
2018-12-08T19:49:32.925Z,9.90
2018-12-08T19:54:44.868Z,9.90
2018-12-08T19:57:20.398Z,9.90
2018-12-08T20:02:43.297Z,9.80
2018-12-08T20:08:31.342Z,9.80
2018-12-08T20:11:04.477Z,9.70
2018-12-08T20:13:36.349Z,9.70
2018-12-08T20:19:13.954Z,9.80
2018-12-08T20:22:00.674Z,9.80
2018-12-08T20:27:44.626Z,9.90
2018-12-08T20:33:02.019Z,10.00
2018-12-08T20:35:38.875Z,10.00
2018-12-08T20:38:12.543Z,10.00
2018-12-08T20:40:45.278Z,10.10
2018-12-08T20:43:20.638Z,10.20
2018-12-08T20:48:41.729Z,10.30
2018-12-08T20:51:14.394Z,10.30
2018-12-08T20:53:48.357Z,10.30
2018-12-08T20:56:30.394Z,10.40
2018-12-08T21:01:58.989Z,10.40
2018-12-08T21:04:34.340Z,10.40
2018-12-08T21:07:13.370Z,10.40
2018-12-08T21:09:56.956Z,10.40
2018-12-08T21:12:33.198Z,10.40
2018-12-08T21:15:22.017Z,10.50
2018-12-08T21:17:55.397Z,10.40
2018-12-08T21:20:27.344Z,10.50
2018-12-08T21:23:01.927Z,10.50
2018-12-08T21:25:36.255Z,10.40
2018-12-08T21:28:08.259Z,10.50
2018-12-08T21:30:40.044Z,10.50
2018-12-08T21:36:13.146Z,10.60
2018-12-08T21:38:46.087Z,10.60
2018-12-08T21:41:24.263Z,10.70
2018-12-08T21:43:56.613Z,10.70
2018-12-08T21:46:28.746Z,10.70
2018-12-08T21:49:00.642Z,10.70
2018-12-08T21:51:42.702Z,10.80
2018-12-08T21:54:14.719Z,10.90
2018-12-08T21:56:47.309Z,10.80
2018-12-08T21:59:21.894Z,10.60
2018-12-08T22:01:57.192Z,10.50
2018-12-08T22:04:28.987Z,10.40
2018-12-08T22:07:04.508Z,10.40
2018-12-08T22:09:39.260Z,10.60
2018-12-08T22:12:13.114Z,10.50
2018-12-08T22:14:53.260Z,10.40
2018-12-08T22:17:32.496Z,10.30
2018-12-08T22:20:06.939Z,10.20
2018-12-08T22:22:44.006Z,10.10
2018-12-08T22:25:18.650Z,10.10
2018-12-08T22:38:59.924Z,10.00
2018-12-08T22:44:23.651Z,10.00
2018-12-08T22:46:58.265Z,10.00
2018-12-08T22:49:34.214Z,10.00
2018-12-08T22:52:06.063Z,10.10
2018-12-08T22:54:38.242Z,10.00
2018-12-08T22:57:10.483Z,10.00
2018-12-08T22:59:42.263Z,10.00
2018-12-08T23:02:15.384Z,10.10
2018-12-08T23:04:50.753Z,10.10
2018-12-08T23:07:23.365Z,10.10
2018-12-08T23:09:59.872Z,10.10
2018-12-08T23:15:05.312Z,10.10
2018-12-08T23:20:36.092Z,10.10
2018-12-08T23:23:14.426Z,10.10
2018-12-08T23:25:55.086Z,10.10
2018-12-08T23:28:31.183Z,10.10
2018-12-08T23:31:07.130Z,10.10
2018-12-08T23:33:42.415Z,10.20
2018-12-08T23:36:17.692Z,10.10
2018-12-08T23:38:51.834Z,10.10
2018-12-08T23:41:26.174Z,10.20
2018-12-08T23:46:56.740Z,10.20
2018-12-08T23:49:30.018Z,10.20
2018-12-08T23:52:03.983Z,10.20
2018-12-08T23:57:37.170Z,10.30
